createdAt,value
2022-11-13T00:00:04.790Z,20.70
2022-11-13T00:01:04.588Z,21.50
2022-11-13T00:02:04.751Z,20.70
2022-11-13T00:03:04.569Z,21.10
2022-11-13T00:04:04.540Z,21.00
2022-11-13T00:05:04.546Z,21.30
2022-11-13T00:06:04.698Z,21.60
2022-11-13T00:07:04.571Z,22.00
2022-11-13T00:08:04.693Z,21.10
2022-11-13T00:09:04.502Z,21.00
2022-11-13T00:10:04.499Z,21.50
2022-11-13T00:11:04.461Z,21.10
2022-11-13T00:12:04.486Z,21.00
2022-11-13T00:13:04.442Z,21.40
2022-11-13T00:14:04.628Z,19.80
2022-11-13T00:15:04.435Z,20.20
2022-11-13T00:16:04.430Z,21.90
2022-11-13T00:17:04.406Z,23.40
2022-11-13T00:18:04.395Z,22.20
2022-11-13T00:19:04.623Z,23.60
2022-11-13T00:20:04.366Z,25.90
2022-11-13T00:21:04.362Z,26.10
2022-11-13T00:22:04.362Z,28.30
2022-11-13T00:23:04.336Z,28.60
2022-11-13T00:24:04.328Z,29.60
2022-11-13T00:25:04.491Z,26.10
2022-11-13T00:26:04.320Z,22.60
2022-11-13T00:27:04.289Z,21.00
2022-11-13T00:28:04.277Z,20.40
2022-11-13T00:29:04.272Z,18.80
2022-11-13T00:30:04.288Z,18.90
2022-11-13T00:31:04.432Z,17.00
2022-11-13T00:32:04.256Z,17.80
2022-11-13T00:33:04.228Z,16.40
2022-11-13T00:35:05.210Z,15.60
2022-11-13T00:36:04.215Z,15.10
2022-11-13T00:37:04.340Z,14.70
2022-11-13T00:38:04.177Z,15.20
2022-11-13T00:39:04.161Z,15.30
2022-11-13T00:40:04.303Z,14.50
2022-11-13T00:41:04.138Z,15.90
2022-11-13T00:42:04.126Z,15.50
2022-11-13T00:43:04.115Z,15.90
2022-11-13T00:44:04.135Z,16.00
2022-11-13T00:45:04.123Z,17.60
2022-11-13T00:46:04.245Z,18.30
2022-11-13T00:47:04.078Z,16.50
2022-11-13T00:48:04.086Z,18.00
2022-11-13T00:49:04.073Z,17.70
2022-11-13T00:50:04.049Z,19.10
2022-11-13T00:51:04.077Z,20.90
2022-11-13T00:52:04.205Z,20.30
2022-11-13T00:53:04.014Z,20.30
2022-11-13T00:54:04.013Z,19.80
2022-11-13T00:55:04.024Z,20.10
2022-11-13T00:56:03.983Z,20.50
2022-11-13T00:57:04.013Z,21.10
2022-11-13T00:58:04.179Z,20.70
2022-11-13T00:59:03.953Z,22.00
2022-11-13T01:00:04.179Z,22.20
2022-11-13T01:01:03.922Z,21.20
2022-11-13T01:02:03.957Z,22.60
2022-11-13T01:03:03.918Z,21.80
2022-11-13T01:04:03.919Z,22.40
2022-11-13T01:05:03.892Z,23.70
2022-11-13T01:06:04.036Z,23.50
2022-11-13T01:07:03.861Z,21.60
2022-11-13T01:08:03.865Z,22.10
2022-11-13T01:09:03.851Z,21.90
2022-11-13T01:10:03.830Z,22.00
2022-11-13T01:11:03.825Z,22.90
2022-11-13T01:12:04.031Z,21.40
2022-11-13T01:13:03.791Z,21.20
2022-11-13T01:14:03.795Z,21.90
2022-11-13T01:15:03.780Z,20.30
2022-11-13T01:16:03.762Z,21.10
2022-11-13T01:17:03.742Z,20.30
2022-11-13T01:18:03.902Z,20.40
2022-11-13T01:19:03.721Z,21.10
2022-11-13T01:20:03.887Z,20.90
2022-11-13T01:21:03.707Z,20.20
2022-11-13T01:22:03.711Z,20.80
2022-11-13T01:23:03.715Z,21.20
2022-11-13T01:24:03.676Z,20.50
2022-11-13T01:25:03.668Z,20.70
2022-11-13T01:26:03.840Z,21.40
2022-11-13T01:27:03.846Z,20.60
2022-11-13T01:28:03.638Z,20.70
2022-11-13T01:29:03.623Z,21.80
2022-11-13T01:30:03.622Z,20.90
2022-11-13T01:31:03.617Z,20.40
2022-11-13T01:32:03.920Z,19.10
2022-11-13T01:33:03.586Z,19.90
2022-11-13T01:34:03.580Z,19.00
2022-11-13T01:35:03.550Z,18.40
2022-11-13T01:36:03.554Z,18.80
2022-11-13T01:37:03.564Z,18.70
2022-11-13T01:38:03.709Z,19.10
2022-11-13T01:39:03.508Z,18.30
2022-11-13T01:40:03.512Z,17.90
2022-11-13T01:41:03.497Z,18.30
2022-11-13T01:42:03.492Z,18.30
2022-11-13T01:43:03.492Z,18.00
2022-11-13T01:44:03.938Z,17.30
2022-11-13T01:45:03.509Z,17.50
2022-11-13T01:46:03.537Z,17.50
2022-11-13T01:47:03.448Z,17.70
2022-11-13T01:48:11.406Z,17.10
2022-11-13T01:49:03.619Z,17.40
2022-11-13T01:50:03.441Z,17.00
2022-11-13T01:51:03.390Z,16.70
2022-11-13T01:52:03.386Z,17.50
2022-11-13T01:53:03.361Z,17.00
2022-11-13T01:54:03.499Z,16.70
2022-11-13T01:55:03.489Z,15.50
2022-11-13T01:56:03.340Z,17.40
2022-11-13T01:57:03.318Z,17.10
2022-11-13T01:58:03.302Z,18.10
2022-11-13T01:59:03.378Z,18.40
2022-11-13T02:00:03.483Z,17.80
2022-11-13T02:01:03.268Z,18.90
2022-11-13T02:02:03.312Z,19.00
2022-11-13T02:03:03.249Z,17.80
2022-11-13T02:04:03.238Z,17.70
2022-11-13T02:05:03.231Z,17.10
2022-11-13T02:06:03.410Z,17.40
2022-11-13T02:07:03.278Z,16.70
2022-11-13T02:08:03.199Z,17.60
2022-11-13T02:09:03.208Z,17.60
2022-11-13T02:10:03.168Z,17.20
2022-11-13T02:11:03.195Z,18.40
2022-11-13T02:12:03.338Z,17.60
2022-11-13T02:13:03.170Z,16.70
2022-11-13T02:14:03.124Z,16.80
2022-11-13T02:15:03.152Z,15.80
2022-11-13T02:16:03.106Z,16.40
2022-11-13T02:17:03.433Z,16.80
2022-11-13T02:18:03.097Z,18.30
2022-11-13T02:19:03.108Z,18.80
2022-11-13T02:20:03.068Z,17.20
2022-11-13T02:21:03.060Z,17.40
2022-11-13T02:22:03.039Z,17.60
2022-11-13T02:23:03.215Z,17.20
2022-11-13T02:24:03.077Z,16.80
2022-11-13T02:25:03.013Z,17.00
2022-11-13T02:26:02.999Z,16.40
2022-11-13T02:27:03.025Z,17.30
2022-11-13T02:28:03.209Z,17.10
2022-11-13T02:29:02.979Z,16.70
2022-11-13T02:30:02.991Z,16.00
2022-11-13T02:31:02.976Z,15.70
2022-11-13T02:32:02.936Z,17.10
2022-11-13T02:33:03.091Z,16.20
2022-11-13T02:34:03.068Z,15.50
2022-11-13T02:35:02.903Z,15.50
2022-11-13T02:36:02.905Z,15.90
2022-11-13T02:37:02.886Z,16.90
2022-11-13T02:38:02.871Z,15.40
2022-11-13T02:39:02.906Z,15.00
2022-11-13T02:40:03.067Z,15.20
2022-11-13T02:41:02.845Z,15.20
2022-11-13T02:42:02.827Z,14.70
2022-11-13T02:43:02.824Z,15.70
2022-11-13T02:44:02.794Z,14.50
2022-11-13T02:45:02.785Z,14.70
2022-11-13T02:46:02.937Z,14.50
2022-11-13T02:47:02.771Z,15.20
2022-11-13T02:48:02.763Z,14.30
2022-11-13T02:49:02.749Z,14.00
2022-11-13T02:50:02.935Z,13.40
2022-11-13T02:51:02.731Z,13.60
2022-11-13T02:52:02.723Z,15.00
2022-11-13T02:53:02.704Z,15.40
2022-11-13T02:54:02.698Z,14.30
2022-11-13T02:55:02.690Z,14.00
2022-11-13T02:56:02.874Z,15.20
2022-11-13T02:57:02.739Z,13.30
2022-11-13T02:58:02.659Z,15.00
2022-11-13T02:59:02.660Z,15.10
2022-11-13T03:00:02.636Z,14.10
2022-11-13T03:01:02.629Z,15.00
2022-11-13T03:02:02.867Z,14.70
2022-11-13T03:03:02.610Z,14.60
2022-11-13T03:04:02.589Z,14.60
2022-11-13T03:05:11.857Z,14.60
2022-11-13T03:06:03.592Z,15.00
2022-11-13T03:07:02.615Z,14.90
2022-11-13T03:08:02.710Z,14.70
2022-11-13T03:09:02.547Z,14.20
2022-11-13T03:10:02.590Z,12.90
2022-11-13T03:11:02.519Z,12.50
2022-11-13T03:12:02.535Z,12.60
2022-11-13T03:13:02.510Z,12.60
2022-11-13T03:14:02.648Z,12.50
2022-11-13T03:15:02.481Z,12.10
2022-11-13T03:16:02.456Z,11.00
2022-11-13T03:17:02.467Z,11.20
2022-11-13T03:18:02.486Z,12.60
2022-11-13T03:19:02.438Z,12.80
2022-11-13T03:20:02.605Z,12.40
2022-11-13T03:21:02.443Z,12.10
2022-11-13T03:22:02.402Z,12.60
2022-11-13T03:23:02.390Z,13.20
2022-11-13T03:24:02.493Z,11.20
2022-11-13T03:25:07.431Z,12.00
2022-11-13T03:26:03.749Z,11.90
2022-11-13T03:27:02.519Z,11.90
2022-11-13T03:28:02.327Z,12.10
2022-11-13T03:29:02.318Z,11.70
2022-11-13T03:30:02.341Z,11.40
2022-11-13T03:31:02.304Z,12.20
2022-11-13T03:32:02.286Z,12.10
2022-11-13T03:33:02.455Z,12.00
2022-11-13T03:34:02.415Z,12.40
2022-11-13T03:35:02.245Z,11.50
2022-11-13T03:36:02.242Z,10.60
2022-11-13T03:37:02.246Z,11.50
2022-11-13T03:38:02.434Z,11.00
2022-11-13T03:39:02.226Z,10.80
2022-11-13T03:40:02.197Z,10.90
2022-11-13T03:41:02.194Z,10.90
2022-11-13T03:42:02.196Z,11.20
2022-11-13T03:43:02.505Z,12.00
2022-11-13T03:44:02.153Z,11.90
2022-11-13T03:45:02.161Z,11.80
2022-11-13T03:46:02.134Z,12.80
2022-11-13T03:47:02.122Z,12.60
2022-11-13T03:48:02.121Z,12.90
2022-11-13T03:49:02.267Z,13.80
2022-11-13T03:50:02.112Z,14.70
2022-11-13T03:51:02.103Z,14.40
2022-11-13T03:52:02.078Z,13.20
2022-11-13T03:53:02.061Z,14.50
2022-11-13T03:54:02.228Z,14.90
2022-11-13T03:55:02.193Z,15.10
2022-11-13T03:56:02.116Z,16.30
2022-11-13T03:57:02.066Z,18.20
2022-11-13T03:58:02.032Z,17.00
2022-11-13T03:59:02.053Z,17.20
2022-11-13T04:00:02.177Z,17.30
2022-11-13T04:01:01.971Z,16.00
2022-11-13T04:02:02.014Z,16.10
2022-11-13T04:03:01.990Z,19.60
2022-11-13T04:04:01.940Z,18.80
2022-11-13T04:05:02.124Z,18.40
2022-11-13T04:06:01.953Z,18.80
2022-11-13T04:07:02.036Z,18.00
2022-11-13T04:08:01.910Z,20.20
2022-11-13T04:09:01.917Z,19.50
2022-11-13T04:10:02.038Z,17.50
2022-11-13T04:11:01.867Z,18.00
2022-11-13T04:12:01.875Z,17.00
2022-11-13T04:13:01.839Z,19.50
2022-11-13T04:14:01.831Z,17.30
2022-11-13T04:15:01.958Z,19.20
2022-11-13T04:16:01.998Z,20.60
2022-11-13T04:17:01.798Z,18.30
2022-11-13T04:18:01.821Z,20.40
2022-11-13T04:19:01.782Z,17.90
2022-11-13T04:20:01.771Z,19.00
2022-11-13T04:21:01.771Z,19.50
2022-11-13T04:22:01.898Z,18.70
2022-11-13T04:23:01.743Z,19.60
2022-11-13T04:24:01.821Z,18.80
2022-11-13T04:25:01.794Z,19.60
2022-11-13T04:26:01.866Z,20.20
2022-11-13T04:27:01.744Z,20.70
2022-11-13T04:28:01.677Z,21.00
2022-11-13T04:29:01.756Z,20.30
2022-11-13T04:30:01.732Z,20.90
2022-11-13T04:31:01.648Z,20.50
2022-11-13T04:32:01.988Z,19.30
2022-11-13T04:33:01.639Z,20.00
2022-11-13T04:34:01.611Z,19.40
2022-11-13T04:35:01.605Z,19.90
2022-11-13T04:36:01.626Z,20.40
2022-11-13T04:37:01.774Z,18.70
2022-11-13T04:38:01.574Z,19.70
2022-11-13T04:39:01.585Z,20.40
2022-11-13T04:40:01.539Z,20.30
2022-11-13T04:41:01.534Z,19.50
2022-11-13T04:42:01.795Z,19.10
2022-11-13T04:43:01.523Z,18.70
2022-11-13T04:44:01.519Z,19.40
2022-11-13T04:45:01.546Z,20.00
2022-11-13T04:46:01.487Z,18.90
2022-11-13T04:47:01.478Z,19.60
2022-11-13T04:48:01.623Z,20.10
2022-11-13T04:49:01.474Z,20.10
2022-11-13T04:50:01.439Z,19.70
2022-11-13T04:51:01.433Z,20.00
2022-11-13T04:52:01.432Z,21.10
2022-11-13T04:53:01.584Z,20.10
2022-11-13T04:54:01.413Z,21.10
2022-11-13T04:55:01.409Z,20.20
2022-11-13T04:56:01.383Z,17.80
2022-11-13T04:57:01.420Z,18.30
2022-11-13T04:58:01.362Z,19.20
2022-11-13T04:59:01.562Z,17.80
2022-11-13T05:00:01.332Z,18.50
2022-11-13T05:01:01.350Z,19.60
2022-11-13T05:02:01.392Z,18.90
2022-11-13T05:03:01.302Z,18.50
2022-11-13T05:04:01.515Z,19.70
2022-11-13T05:05:04.943Z,19.30
2022-11-13T05:06:01.384Z,19.10
2022-11-13T05:07:01.435Z,18.60
2022-11-13T05:08:01.241Z,19.20
2022-11-13T05:09:01.272Z,18.60
2022-11-13T05:10:01.411Z,18.20
2022-11-13T05:11:01.222Z,18.10
2022-11-13T05:12:01.205Z,18.70
2022-11-13T05:13:01.201Z,17.00
2022-11-13T05:14:03.716Z,17.50
2022-11-13T05:15:01.175Z,17.10
2022-11-13T05:16:01.334Z,17.60
2022-11-13T05:17:01.153Z,18.80
2022-11-13T05:18:01.139Z,17.80
2022-11-13T05:19:01.144Z,17.60
2022-11-13T05:20:01.280Z,20.10
2022-11-13T05:21:01.368Z,16.70
2022-11-13T05:22:01.124Z,19.70
2022-11-13T05:23:01.084Z,17.60
2022-11-13T05:24:01.069Z,18.20
2022-11-13T05:25:01.084Z,15.20
2022-11-13T05:26:01.204Z,14.10
2022-11-13T05:27:01.036Z,16.00
2022-11-13T05:28:01.051Z,16.70
2022-11-13T05:29:01.020Z,15.80
2022-11-13T05:30:01.009Z,17.50
2022-11-13T05:31:01.181Z,15.50
2022-11-13T05:32:00.981Z,15.20
2022-11-13T05:33:00.996Z,17.70
2022-11-13T05:34:05.464Z,19.00
2022-11-13T05:35:01.991Z,17.90
2022-11-13T05:36:00.936Z,17.10
2022-11-13T05:37:01.092Z,15.10
2022-11-13T05:38:00.924Z,17.20
2022-11-13T05:39:00.921Z,16.80
2022-11-13T05:40:00.920Z,16.30
2022-11-13T05:41:00.897Z,15.80
2022-11-13T05:42:01.057Z,17.10
2022-11-13T05:43:00.914Z,17.90
2022-11-13T05:44:00.845Z,16.90
2022-11-13T05:45:00.844Z,17.80
2022-11-13T05:46:00.846Z,16.30
2022-11-13T05:47:00.834Z,16.50
2022-11-13T05:48:00.959Z,17.10
2022-11-13T05:49:00.799Z,17.60
2022-11-13T05:50:00.800Z,17.00
2022-11-13T05:51:00.782Z,16.70
2022-11-13T05:52:00.767Z,17.20
2022-11-13T05:53:00.963Z,17.70
2022-11-13T05:54:00.784Z,16.10
2022-11-13T05:55:00.754Z,16.20
2022-11-13T05:56:00.723Z,16.60
2022-11-13T05:57:00.736Z,16.90
2022-11-13T05:58:00.951Z,16.60
2022-11-13T05:59:00.701Z,14.30
2022-11-13T06:00:00.709Z,12.90
2022-11-13T06:01:00.720Z,13.50
2022-11-13T06:02:00.701Z,12.90
2022-11-13T06:03:00.827Z,13.80
2022-11-13T06:04:00.654Z,12.60
2022-11-13T06:05:00.642Z,12.80
2022-11-13T06:06:00.657Z,12.50
2022-11-13T06:07:00.674Z,13.90
2022-11-13T06:08:00.601Z,14.70
2022-11-13T06:09:00.802Z,14.60
2022-11-13T06:10:00.776Z,14.80
2022-11-13T06:11:00.685Z,15.60
2022-11-13T06:12:00.597Z,14.80
2022-11-13T06:13:00.545Z,14.30
2022-11-13T06:14:21.733Z,14.70
2022-11-13T06:15:00.521Z,15.00
2022-11-13T06:16:00.510Z,15.70
2022-11-13T06:17:00.524Z,16.60
2022-11-13T06:18:00.492Z,14.80
2022-11-13T06:19:00.482Z,14.60
2022-11-13T06:20:00.665Z,15.30
2022-11-13T06:21:00.451Z,14.10
2022-11-13T06:22:00.450Z,14.70
2022-11-13T06:23:00.438Z,14.20
2022-11-13T06:24:00.430Z,15.10
2022-11-13T06:25:00.646Z,15.90
2022-11-13T06:26:00.448Z,14.10
2022-11-13T06:27:00.398Z,13.10
2022-11-13T06:28:00.407Z,13.70
2022-11-13T06:29:00.410Z,14.50
2022-11-13T06:30:00.538Z,14.30
2022-11-13T06:31:00.368Z,15.80
2022-11-13T06:32:00.360Z,15.20
2022-11-13T06:33:00.326Z,14.50
2022-11-13T06:34:00.318Z,16.60
2022-11-13T06:35:00.526Z,17.40
2022-11-13T06:36:00.292Z,15.80
2022-11-13T06:37:01.768Z,16.20
2022-11-13T06:38:00.280Z,16.50
2022-11-13T06:39:00.324Z,15.50
2022-11-13T06:40:00.257Z,14.90
2022-11-13T06:41:00.611Z,14.30
2022-11-13T06:42:00.250Z,15.00
2022-11-13T06:43:00.218Z,14.40
2022-11-13T06:44:02.941Z,14.80
2022-11-13T06:45:00.201Z,15.80
2022-11-13T06:46:00.359Z,14.90
2022-11-13T06:47:00.178Z,13.80
2022-11-13T06:48:00.200Z,14.50
2022-11-13T06:49:00.161Z,14.90
2022-11-13T06:50:00.152Z,15.50
2022-11-13T06:51:00.191Z,14.80
2022-11-13T06:52:00.287Z,15.50
2022-11-13T06:53:00.117Z,15.70
2022-11-13T06:54:00.096Z,15.60
2022-11-13T06:55:00.089Z,14.40
2022-11-13T06:56:00.098Z,14.30
2022-11-13T06:57:00.094Z,14.40
2022-11-13T06:58:00.462Z,16.10
2022-11-13T06:59:00.117Z,14.60
2022-11-13T07:00:00.036Z,15.10
2022-11-13T07:01:00.111Z,15.00
2022-11-13T07:02:00.179Z,14.50
2022-11-13T07:03:00.024Z,14.50
2022-11-13T07:04:00.238Z,14.00
2022-11-13T07:04:59.981Z,14.00
2022-11-13T07:05:59.975Z,14.00
2022-11-13T07:07:00.032Z,13.70
2022-11-13T07:07:59.953Z,14.10
2022-11-13T07:08:59.933Z,13.40
2022-11-13T07:10:00.115Z,14.70
2022-11-13T07:10:59.913Z,14.90
2022-11-13T07:11:59.894Z,15.70
2022-11-13T07:12:59.946Z,17.20
2022-11-13T07:13:59.875Z,16.30
2022-11-13T07:14:59.869Z,16.00
2022-11-13T07:16:05.836Z,16.80
2022-11-13T07:17:10.121Z,15.10
2022-11-13T07:18:00.834Z,16.40
2022-11-13T07:18:59.878Z,18.70
2022-11-13T07:19:59.814Z,18.40
2022-11-13T07:20:59.833Z,16.00
2022-11-13T07:21:59.967Z,16.20
2022-11-13T07:22:59.824Z,15.80
2022-11-13T07:23:59.936Z,17.60
2022-11-13T07:24:59.801Z,16.50
2022-11-13T07:25:59.757Z,15.90
2022-11-13T07:26:59.750Z,15.70
2022-11-13T07:27:59.764Z,16.00
2022-11-13T07:29:00.094Z,16.90
2022-11-13T07:30:03.565Z,16.30
2022-11-13T07:30:59.705Z,18.60
2022-11-13T07:31:59.691Z,18.00
2022-11-13T07:32:59.681Z,15.80
2022-11-13T07:33:59.698Z,17.00
2022-11-13T07:34:59.812Z,16.50
2022-11-13T07:35:59.653Z,17.20
2022-11-13T07:36:59.641Z,16.70
2022-11-13T07:37:59.630Z,16.30
2022-11-13T07:39:00.483Z,16.50
2022-11-13T07:39:59.771Z,17.90
2022-11-13T07:40:59.611Z,15.90
2022-11-13T07:41:59.581Z,16.10
2022-11-13T07:42:59.570Z,17.70
2022-11-13T07:43:59.580Z,15.70
2022-11-13T07:44:59.558Z,15.70
2022-11-13T07:45:59.694Z,17.20
2022-11-13T07:46:59.534Z,17.40
2022-11-13T07:47:59.528Z,17.00
2022-11-13T07:48:59.508Z,16.20
2022-11-13T07:50:05.570Z,14.80
2022-11-13T07:51:00.699Z,16.20
2022-11-13T07:51:59.472Z,17.10
2022-11-13T07:52:59.458Z,16.50
2022-11-13T07:53:59.458Z,16.60
2022-11-13T07:54:59.435Z,15.60
2022-11-13T07:55:59.444Z,15.80
2022-11-13T07:56:59.585Z,16.00
2022-11-13T07:57:59.410Z,15.00
2022-11-13T07:58:59.397Z,15.40
2022-11-13T07:59:59.410Z,13.50
2022-11-13T08:00:59.392Z,14.90
2022-11-13T08:01:59.556Z,15.20
2022-11-13T08:02:59.381Z,14.70
2022-11-13T08:03:59.352Z,14.70
2022-11-13T08:04:59.338Z,14.10
2022-11-13T08:05:59.325Z,14.10
2022-11-13T08:06:59.544Z,15.70
2022-11-13T08:07:59.309Z,14.00
2022-11-13T08:08:59.391Z,13.70
2022-11-13T08:09:59.288Z,14.60
2022-11-13T08:10:59.266Z,16.50
2022-11-13T08:11:59.473Z,16.30
2022-11-13T08:12:59.246Z,17.10
2022-11-13T08:13:59.236Z,15.30
2022-11-13T08:14:59.255Z,15.50
2022-11-13T08:15:59.219Z,14.30
2022-11-13T08:16:59.209Z,15.00
2022-11-13T08:17:59.370Z,16.00
2022-11-13T08:18:59.213Z,14.70
2022-11-13T08:19:59.166Z,14.00
2022-11-13T08:20:59.175Z,15.10
2022-11-13T08:21:59.171Z,14.70
2022-11-13T08:22:59.142Z,15.50
2022-11-13T08:23:59.300Z,16.60
2022-11-13T08:24:59.197Z,17.10
2022-11-13T08:25:59.134Z,16.10
2022-11-13T08:26:59.090Z,19.20
2022-11-13T08:27:59.084Z,19.60
2022-11-13T08:28:59.267Z,18.30
2022-11-13T08:29:59.067Z,16.40
2022-11-13T08:30:59.045Z,14.50
2022-11-13T08:31:59.059Z,15.10
2022-11-13T08:32:59.050Z,14.60
2022-11-13T08:33:59.025Z,13.60
2022-11-13T08:34:59.218Z,14.20
2022-11-13T08:35:59.011Z,14.80
2022-11-13T08:36:58.996Z,14.20
2022-11-13T08:37:58.984Z,14.70
2022-11-13T08:38:58.974Z,15.40
2022-11-13T08:39:59.004Z,15.10
2022-11-13T08:41:01.211Z,15.30
2022-11-13T08:41:58.946Z,15.20
2022-11-13T08:42:58.923Z,14.60
2022-11-13T08:43:58.935Z,14.70
2022-11-13T08:44:59.011Z,14.20
2022-11-13T08:45:58.891Z,13.80
2022-11-13T08:46:59.042Z,14.10
2022-11-13T08:47:58.930Z,15.60
2022-11-13T08:48:58.895Z,16.10
2022-11-13T08:49:58.856Z,16.30
2022-11-13T08:50:58.832Z,15.70
2022-11-13T08:51:58.857Z,16.90
2022-11-13T08:52:58.993Z,15.20
2022-11-13T08:53:58.811Z,14.30
2022-11-13T08:54:58.820Z,15.70
2022-11-13T08:55:58.807Z,14.70
2022-11-13T08:57:03.305Z,16.10
2022-11-13T08:57:59.936Z,18.70
2022-11-13T08:58:58.740Z,18.60
2022-11-13T08:59:58.746Z,19.10
2022-11-13T09:00:58.736Z,18.10
2022-11-13T09:01:58.720Z,18.30
2022-11-13T09:02:58.711Z,19.60
2022-11-13T09:03:59.015Z,16.90
2022-11-13T09:04:58.706Z,18.00
2022-11-13T09:05:58.680Z,19.10
2022-11-13T09:06:58.714Z,18.00
2022-11-13T09:07:58.711Z,18.30
2022-11-13T09:08:58.640Z,17.80
2022-11-13T09:09:58.866Z,18.20
2022-11-13T09:10:58.618Z,19.40
2022-11-13T09:11:58.640Z,18.90
2022-11-13T09:12:58.598Z,19.20
2022-11-13T09:13:58.590Z,18.70
2022-11-13T09:14:58.623Z,19.20
2022-11-13T09:15:58.743Z,18.60
2022-11-13T09:16:58.548Z,18.70
2022-11-13T09:17:58.563Z,18.30
2022-11-13T09:18:58.533Z,18.90
2022-11-13T09:20:03.720Z,19.00
2022-11-13T09:20:59.690Z,20.30
2022-11-13T09:21:58.829Z,19.50
2022-11-13T09:22:58.489Z,17.70
2022-11-13T09:23:58.500Z,18.10
2022-11-13T09:24:58.463Z,18.10
2022-11-13T09:25:58.457Z,18.40
2022-11-13T09:26:58.437Z,19.20
2022-11-13T09:27:58.609Z,17.10
2022-11-13T09:28:58.421Z,19.80
2022-11-13T09:29:58.418Z,19.90
2022-11-13T09:30:58.405Z,19.50
2022-11-13T09:31:58.417Z,19.00
2022-11-13T09:32:58.546Z,19.80
2022-11-13T09:33:58.375Z,20.00
2022-11-13T09:34:58.440Z,18.30
2022-11-13T09:35:58.354Z,20.70
2022-11-13T09:36:58.346Z,19.90
2022-11-13T09:37:58.501Z,23.70
2022-11-13T09:38:58.306Z,22.50
2022-11-13T09:39:58.305Z,27.00
2022-11-13T09:40:58.327Z,29.10
2022-11-13T09:41:58.284Z,29.60
2022-11-13T09:42:58.278Z,31.80
2022-11-13T09:44:00.146Z,33.10
2022-11-13T09:44:58.250Z,32.20
2022-11-13T09:45:58.250Z,35.50
2022-11-13T09:46:58.232Z,35.40
2022-11-13T09:47:58.234Z,36.60
2022-11-13T09:48:58.205Z,35.30
2022-11-13T09:49:58.213Z,36.90
2022-11-13T09:50:58.210Z,37.60
2022-11-13T09:51:59.794Z,38.10
2022-11-13T09:52:58.158Z,38.10
2022-11-13T09:53:58.349Z,37.20
2022-11-13T09:54:58.155Z,36.00
2022-11-13T09:55:58.161Z,35.80
2022-11-13T09:56:58.125Z,34.20
2022-11-13T09:57:58.103Z,34.50
2022-11-13T09:58:58.106Z,33.80
2022-11-13T09:59:58.241Z,32.30
2022-11-13T10:00:58.219Z,32.10
2022-11-13T10:01:58.085Z,30.90
2022-11-13T10:02:58.063Z,30.90
2022-11-13T10:04:03.940Z,29.40
2022-11-13T10:04:59.240Z,30.80
2022-11-13T10:05:58.022Z,29.00
2022-11-13T10:06:58.023Z,28.30
2022-11-13T10:07:58.014Z,29.00
2022-11-13T10:08:57.994Z,29.10
2022-11-13T10:09:57.976Z,30.60
2022-11-13T10:10:58.191Z,31.10
2022-11-13T10:11:57.989Z,30.80
2022-11-13T10:12:57.961Z,29.50
2022-11-13T10:13:57.931Z,31.50
2022-11-13T10:14:57.920Z,28.60
2022-11-13T10:15:57.934Z,28.60
2022-11-13T10:16:58.064Z,27.80
2022-11-13T10:17:57.900Z,27.00
2022-11-13T10:18:57.879Z,26.40
2022-11-13T10:19:57.921Z,27.60
2022-11-13T10:20:57.988Z,26.90
2022-11-13T10:22:07.699Z,25.90
2022-11-13T10:22:59.064Z,29.10
2022-11-13T10:23:57.852Z,27.00
2022-11-13T10:24:58.047Z,25.90
2022-11-13T10:25:57.850Z,26.60
2022-11-13T10:26:57.798Z,26.90
2022-11-13T10:27:57.835Z,27.00
2022-11-13T10:28:58.008Z,26.70
2022-11-13T10:29:57.767Z,25.30
2022-11-13T10:30:57.997Z,25.00
2022-11-13T10:31:57.748Z,25.30
2022-11-13T10:32:57.743Z,25.20
2022-11-13T10:33:57.733Z,23.20
2022-11-13T10:34:57.926Z,24.10
2022-11-13T10:35:57.730Z,24.00
2022-11-13T10:36:57.695Z,23.10
2022-11-13T10:37:57.683Z,23.50
2022-11-13T10:38:57.695Z,21.80
2022-11-13T10:39:57.655Z,21.80
2022-11-13T10:41:18.806Z,22.10
2022-11-13T10:41:57.634Z,21.10
2022-11-13T10:42:57.648Z,20.90
2022-11-13T10:43:57.605Z,21.40
2022-11-13T10:44:57.618Z,19.60
2022-11-13T10:45:57.602Z,19.40
2022-11-13T10:46:57.742Z,19.60
2022-11-13T10:48:04.077Z,19.50
2022-11-13T10:48:58.554Z,18.50
2022-11-13T10:49:57.554Z,18.80
2022-11-13T10:50:57.546Z,18.50
2022-11-13T10:51:57.525Z,18.80
2022-11-13T10:52:57.700Z,20.20
2022-11-13T10:53:57.500Z,19.70
2022-11-13T10:54:57.506Z,19.40
2022-11-13T10:55:57.489Z,19.30
2022-11-13T10:56:57.478Z,19.40
2022-11-13T10:57:57.478Z,19.30
2022-11-13T10:58:57.652Z,18.70
2022-11-13T10:59:57.435Z,19.70
2022-11-13T11:00:57.487Z,19.70
2022-11-13T11:01:57.427Z,18.50
2022-11-13T11:02:57.421Z,19.50
2022-11-13T11:03:57.386Z,19.80
2022-11-13T11:04:57.653Z,19.50
2022-11-13T11:05:57.383Z,19.00
2022-11-13T11:07:18.989Z,19.70
2022-11-13T11:07:58.437Z,19.20
2022-11-13T11:08:57.358Z,20.00
2022-11-13T11:09:57.529Z,21.00
2022-11-13T11:10:57.354Z,20.60
2022-11-13T11:12:04.813Z,21.40
2022-11-13T11:13:04.816Z,21.20
2022-11-13T11:14:04.793Z,20.90
2022-11-13T11:15:05.982Z,22.30
2022-11-13T11:16:06.011Z,22.00
2022-11-13T11:17:04.762Z,21.20
2022-11-13T11:18:04.760Z,21.90
2022-11-13T11:18:57.241Z,22.20
2022-11-13T11:19:57.219Z,24.50
2022-11-13T11:20:57.486Z,21.60
2022-11-13T11:21:57.203Z,23.20
2022-11-13T11:22:57.222Z,24.70
2022-11-13T11:23:57.193Z,24.80
2022-11-13T11:24:57.180Z,23.40
2022-11-13T11:25:57.164Z,23.60
2022-11-13T11:26:57.342Z,22.70
2022-11-13T11:27:57.132Z,22.30
2022-11-13T11:28:57.120Z,21.40
2022-11-13T11:29:57.109Z,20.80
2022-11-13T11:30:57.125Z,20.60
2022-11-13T11:32:06.809Z,20.50
2022-11-13T11:32:57.070Z,21.30
2022-11-13T11:33:57.068Z,20.80
2022-11-13T11:34:59.313Z,20.50
2022-11-13T11:36:04.801Z,20.20
2022-11-13T11:37:04.786Z,21.60
2022-11-13T11:38:06.973Z,21.50
2022-11-13T11:38:57.014Z,20.40
2022-11-13T11:40:04.522Z,20.10
2022-11-13T11:41:04.551Z,21.30
2022-11-13T11:42:04.500Z,20.60
2022-11-13T11:43:04.526Z,19.40
2022-11-13T11:43:57.132Z,20.20
2022-11-13T11:44:56.949Z,19.50
2022-11-13T11:45:56.941Z,20.00
2022-11-13T11:46:56.982Z,19.90
2022-11-13T11:47:56.926Z,20.00
2022-11-13T11:48:56.969Z,20.60
2022-11-13T11:49:57.053Z,18.90
2022-11-13T11:50:56.904Z,18.80
2022-11-13T11:51:56.880Z,18.30
2022-11-13T11:52:56.867Z,19.00
2022-11-13T11:53:56.863Z,19.10
2022-11-13T11:54:57.027Z,18.60
2022-11-13T11:55:56.842Z,19.30
2022-11-13T11:56:56.877Z,19.70
2022-11-13T11:57:56.814Z,21.10
2022-11-13T11:58:57.756Z,19.90
2022-11-13T11:59:56.798Z,20.80
2022-11-13T12:00:56.941Z,24.80
2022-11-13T12:01:56.783Z,29.20
2022-11-13T12:02:56.793Z,31.50
2022-11-13T12:03:56.777Z,31.90
2022-11-13T12:04:56.771Z,30.00
2022-11-13T12:05:56.975Z,28.20
2022-11-13T12:06:56.971Z,27.50
2022-11-13T12:07:56.710Z,27.20
2022-11-13T12:08:56.714Z,25.20
2022-11-13T12:09:56.702Z,27.00
2022-11-13T12:10:56.676Z,29.70
2022-11-13T12:11:56.835Z,30.70
2022-11-13T12:12:56.656Z,31.10
2022-11-13T12:13:56.673Z,31.30
2022-11-13T12:14:56.626Z,29.20
2022-11-13T12:15:56.616Z,26.90
2022-11-13T12:16:56.617Z,25.20
2022-11-13T12:17:56.747Z,24.60
2022-11-13T12:18:56.601Z,25.10
2022-11-13T12:19:56.578Z,25.90
2022-11-13T12:20:56.574Z,24.70
2022-11-13T12:21:56.734Z,24.90
2022-11-13T12:22:56.560Z,25.10
2022-11-13T12:23:56.537Z,25.30
2022-11-13T12:24:56.774Z,24.80
2022-11-13T12:25:56.525Z,24.10
2022-11-13T12:26:56.504Z,25.00
2022-11-13T12:27:56.489Z,24.80
2022-11-13T12:28:56.476Z,25.20
2022-11-13T12:29:56.616Z,26.60
2022-11-13T12:30:56.470Z,25.90
2022-11-13T12:31:56.444Z,26.20
2022-11-13T12:32:56.435Z,26.60
2022-11-13T12:34:01.024Z,25.40
2022-11-13T12:34:57.585Z,26.20
2022-11-13T12:35:56.773Z,26.20
2022-11-13T12:36:56.386Z,25.90
2022-11-13T12:37:56.383Z,27.50
2022-11-13T12:38:56.377Z,28.60
2022-11-13T12:39:56.352Z,27.50
2022-11-13T12:40:56.358Z,26.80
2022-11-13T12:41:56.532Z,26.70
2022-11-13T12:42:56.332Z,26.70
2022-11-13T12:43:56.321Z,27.80
2022-11-13T12:44:56.304Z,27.20
2022-11-13T12:45:56.290Z,27.30
2022-11-13T12:46:56.300Z,26.50
2022-11-13T12:47:56.451Z,27.80
2022-11-13T12:48:56.260Z,28.40
2022-11-13T12:49:56.262Z,27.60
2022-11-13T12:50:56.237Z,27.10
2022-11-13T12:51:56.241Z,28.60
2022-11-13T12:52:56.221Z,27.90